Droylsden, United Kingdom
Current Conditions -  °F | °C
As of 6:50 AM on Monday 24 Nov 2014 (Local Time) from EGCC Reporting Station
Broken Clouds Broken Clouds  
Wind Chill: 33°   Ceiling: 3400
Heat Index: 37°   Visibility: 6mi
Dew Point: 36°   Wind: 6mph
Humidity: 93%   Direction: 230°SW
Pressure: 30.24"   Gusts: NA
Location:  53.48°N, 2.15°W
Report Text: EGCC 240650Z 23005KT 180V240 9999 BKN034 03/02 Q1024
Loading
Personal Weather Stations






























Interactive Weather Map New forecast layout! Learn more

10-Day Weather Forecast

Advertisements
Track Severe Weather on mobile